Air Quality Table

TIMESTAMP NO2 SO2 O3 PM10 PM2.5 CO TEMP HUM WS WD NO
2022-01-21 01:00 0.98 µg/m3 1.02 µg/m3 94.91 µg/m3 4.36 µg/m3 N/A 0.15 mg/m3 12.35 °C 73.22 % 3 m/s 222.75 Deg 0.04 µg/m3
2022-01-20 01:00 N/A 0.59 µg/m3 81.38 µg/m3 N/A N/A N/A 12.19 °C 76.78 % 2.24 m/s 131.14 Deg N/A
2022-01-19 01:00 N/A N/A N/A N/A N/A N/A 12.25 °C 67.28 % 1.16 m/s 244.66 Deg N/A
2022-01-13 01:00 N/A N/A N/A N/A N/A N/A 12.01 °C 79.37 % 3.06 m/s 190.07 Deg N/A
2022-01-12 01:00 N/A N/A N/A N/A N/A N/A 12.72 °C 71.15 % 7.41 m/s 334.48 Deg N/A
2022-01-11 01:00 N/A N/A N/A N/A 6.07 µg/m3 N/A 9.34 °C 87.8 % 9.44 m/s 291.75 Deg N/A
2022-01-10 01:00 0.93 µg/m3 0.36 µg/m3 85.3 µg/m3 N/A 4.83 µg/m3 0.17 mg/m3 12.27 °C 73.97 % 10.38 m/s 275.07 Deg 0.06 µg/m3
2022-01-09 01:00 1.37 µg/m3 0.33 µg/m3 80.68 µg/m3 N/A 4.19 µg/m3 0.18 mg/m3 12.45 °C 70.88 % 9.52 m/s 291.68 Deg 0.08 µg/m3
2022-01-08 01:00 2.05 µg/m3 0.36 µg/m3 76.58 µg/m3 N/A 3.94 µg/m3 0.17 mg/m3 12.57 °C 82.64 % 7.28 m/s 328.55 Deg 0.07 µg/m3
2022-01-07 01:00 2.99 µg/m3 0.38 µg/m3 77.87 µg/m3 N/A 4.98 µg/m3 0.18 mg/m3 13.61 °C 81.07 % 4.51 m/s 205.85 Deg 0.15 µg/m3
2022-01-06 01:00 1.2 µg/m3 0.55 µg/m3 84.56 µg/m3 N/A 5.67 µg/m3 0.16 mg/m3 15.27 °C 82.94 % 6.1 m/s 220.73 Deg 0.06 µg/m3
2022-01-05 01:00 0.96 µg/m3 0.71 µg/m3 83.38 µg/m3 N/A N/A 0.18 mg/m3 13.93 °C 88.69 % 5.55 m/s 233.73 Deg 0.06 µg/m3
2022-01-04 01:00 1.04 µg/m3 0.32 µg/m3 72.04 µg/m3 N/A 4.06 µg/m3 0.15 mg/m3 13.2 °C 86.96 % 6.4 m/s 286.88 Deg 0.06 µg/m3
2022-01-03 01:00 1.91 µg/m3 0.37 µg/m3 68.82 µg/m3 N/A 4.51 µg/m3 0.17 mg/m3 13.93 °C 91.44 % 3.25 m/s 249.64 Deg 0.13 µg/m3
2022-01-02 01:00 3.65 µg/m3 0.52 µg/m3 64.19 µg/m3 N/A 5.55 µg/m3 0.19 mg/m3 14.11 °C 95.02 % 4.74 m/s 300.7 Deg 0.23 µg/m3
2022-01-01 01:00 3.13 µg/m3 0.73 µg/m3 78.13 µg/m3 N/A 4.52 µg/m3 0.2 mg/m3 14.48 °C 81.53 % 1.97 m/s 229.25 Deg 0.2 µg/m3
2021-12-31 01:00 3.45 µg/m3 0.36 µg/m3 69.98 µg/m3 N/A 6.16 µg/m3 0.18 mg/m3 15.02 °C 91.21 % 5.77 m/s 268.89 Deg 0.18 µg/m3
2021-12-30 01:00 2.48 µg/m3 0.35 µg/m3 77.26 µg/m3 N/A 8.04 µg/m3 0.17 mg/m3 15.28 °C 89.12 % 9 m/s 296.58 Deg 0.13 µg/m3
2021-12-29 01:00 1.79 µg/m3 0.59 µg/m3 76.61 µg/m3 N/A 7.12 µg/m3 0.18 mg/m3 15.38 °C 86.5 % 8.42 m/s 269.74 Deg 0.11 µg/m3
2021-12-28 01:00 2.35 µg/m3 0.58 µg/m3 74.6 µg/m3 N/A 6.11 µg/m3 0.19 mg/m3 15.4 °C 86.98 % 4.75 m/s 251.12 Deg 0.18 µg/m3
2021-12-27 01:00 2.04 µg/m3 0.5 µg/m3 75.21 µg/m3 N/A 6.19 µg/m3 0.18 mg/m3 16.31 °C 74.26 % 6.5 m/s 151.88 Deg 0.29 µg/m3
2021-12-26 01:00 2.48 µg/m3 1.03 µg/m3 86.44 µg/m3 N/A 7.94 µg/m3 0.2 mg/m3 15.87 °C 82.49 % 7.08 m/s 153.08 Deg 0.14 µg/m3
2021-12-25 01:00 2.95 µg/m3 0.42 µg/m3 80.03 µg/m3 N/A 4.3 µg/m3 0.18 mg/m3 13.7 °C 82.42 % 3.04 m/s 122.32 Deg 0.18 µg/m3
2021-12-24 01:00 1.64 µg/m3 0.38 µg/m3 82.12 µg/m3 N/A 4.16 µg/m3 0.19 mg/m3 13.31 °C 80.47 % 6.15 m/s 117.41 Deg 0.08 µg/m3
2021-12-23 01:00 2 µg/m3 0.41 µg/m3 82.28 µg/m3 N/A 5.12 µg/m3 0.17 mg/m3 13.52 °C 74.68 % 2.61 m/s 194.88 Deg 0.07 µg/m3

It is to be noted that the data is provisional and subject to quality assurance procedures. For validated data kindly refer your request to contact.air@era.org.mt